sensor_id;sensor_type;location;lat;lon;timestamp;P1;durP1;ratioP1;P2;durP2;ratioP2
32319;SDS011;19080;51.750;5.888;2022-09-03T00:00:36;1.80;;;1.20;;
32319;SDS011;19080;51.750;5.888;2022-09-03T00:03:12;2.10;;;1.30;;
32319;SDS011;19080;51.750;5.888;2022-09-03T00:08:31;2.53;;;1.55;;
32319;SDS011;19080;51.750;5.888;2022-09-03T00:11:10;3.33;;;1.20;;
32319;SDS011;19080;51.750;5.888;2022-09-03T00:16:23;3.85;;;1.70;;
32319;SDS011;19080;51.750;5.888;2022-09-03T00:18:53;1.83;;;1.40;;
32319;SDS011;19080;51.750;5.888;2022-09-03T00:21:34;3.13;;;1.50;;
32319;SDS011;19080;51.750;5.888;2022-09-03T00:24:02;3.90;;;1.40;;
32319;SDS011;19080;51.750;5.888;2022-09-03T00:26:30;5.18;;;1.42;;
32319;SDS011;19080;51.750;5.888;2022-09-03T00:29:06;3.08;;;1.50;;
32319;SDS011;19080;51.750;5.888;2022-09-03T00:31:44;1.90;;;1.30;;
32319;SDS011;19080;51.750;5.888;2022-09-03T00:34:22;3.90;;;1.48;;
32319;SDS011;19080;51.750;5.888;2022-09-03T00:36:52;2.83;;;1.38;;
32319;SDS011;19080;51.750;5.888;2022-09-03T00:39:19;4.65;;;1.48;;
32319;SDS011;19080;51.750;5.888;2022-09-03T00:47:30;2.80;;;1.48;;
32319;SDS011;19080;51.750;5.888;2022-09-03T00:52:47;4.10;;;1.67;;
32319;SDS011;19080;51.750;5.888;2022-09-03T00:55:25;1.77;;;1.20;;
32319;SDS011;19080;51.750;5.888;2022-09-03T01:00:19;3.72;;;1.83;;
32319;SDS011;19080;51.750;5.888;2022-09-03T01:06:00;5.18;;;1.50;;
32319;SDS011;19080;51.750;5.888;2022-09-03T01:13:06;3.75;;;1.70;;
32319;SDS011;19080;51.750;5.888;2022-09-03T01:18:20;3.85;;;1.42;;
32319;SDS011;19080;51.750;5.888;2022-09-03T01:23:35;3.50;;;1.70;;
32319;SDS011;19080;51.750;5.888;2022-09-03T01:26:15;2.60;;;1.40;;
32319;SDS011;19080;51.750;5.888;2022-09-03T01:31:24;2.72;;;1.55;;
32319;SDS011;19080;51.750;5.888;2022-09-03T01:36:31;2.10;;;1.35;;
32319;SDS011;19080;51.750;5.888;2022-09-03T01:39:03;5.22;;;1.83;;
32319;SDS011;19080;51.750;5.888;2022-09-03T01:49:42;3.45;;;1.60;;
32319;SDS011;19080;51.750;5.888;2022-09-03T01:52:11;4.78;;;1.60;;
32319;SDS011;19080;51.750;5.888;2022-09-03T01:54:43;2.08;;;1.33;;
32319;SDS011;19080;51.750;5.888;2022-09-03T02:00:11;1.90;;;1.42;;
32319;SDS011;19080;51.750;5.888;2022-09-03T02:02:39;2.78;;;1.77;;
32319;SDS011;19080;51.750;5.888;2022-09-03T02:05:09;3.53;;;1.50;;
32319;SDS011;19080;51.750;5.888;2022-09-03T02:07:40;4.25;;;1.67;;
32319;SDS011;19080;51.750;5.888;2022-09-03T02:10:08;5.22;;;1.75;;
32319;SDS011;19080;51.750;5.888;2022-09-03T02:12:36;4.25;;;1.50;;
32319;SDS011;19080;51.750;5.888;2022-09-03T02:15:09;3.28;;;1.60;;
32319;SDS011;19080;51.750;5.888;2022-09-03T02:17:37;2.00;;;1.55;;
32319;SDS011;19080;51.750;5.888;2022-09-03T02:20:07;3.55;;;1.50;;
32319;SDS011;19080;51.750;5.888;2022-09-03T02:22:34;1.75;;;1.27;;
32319;SDS011;19080;51.750;5.888;2022-09-03T02:25:00;3.10;;;1.35;;
32319;SDS011;19080;51.750;5.888;2022-09-03T02:27:27;3.30;;;1.60;;
32319;SDS011;19080;51.750;5.888;2022-09-03T02:29:53;2.70;;;1.40;;
32319;SDS011;19080;51.750;5.888;2022-09-03T02:32:20;2.58;;;1.73;;
32319;SDS011;19080;51.750;5.888;2022-09-03T02:34:46;2.28;;;1.30;;
32319;SDS011;19080;51.750;5.888;2022-09-03T02:37:13;2.85;;;1.45;;
32319;SDS011;19080;51.750;5.888;2022-09-03T02:39:40;2.35;;;1.60;;
32319;SDS011;19080;51.750;5.888;2022-09-03T02:42:07;5.70;;;1.92;;
32319;SDS011;19080;51.750;5.888;2022-09-03T02:44:36;4.75;;;1.30;;
32319;SDS011;19080;51.750;5.888;2022-09-03T02:47:05;2.65;;;1.50;;
32319;SDS011;19080;51.750;5.888;2022-09-03T02:49:32;3.85;;;1.60;;
32319;SDS011;19080;51.750;5.888;2022-09-03T02:52:00;2.75;;;1.40;;
32319;SDS011;19080;51.750;5.888;2022-09-03T02:54:30;4.45;;;1.75;;
32319;SDS011;19080;51.750;5.888;2022-09-03T02:56:58;3.35;;;1.67;;
32319;SDS011;19080;51.750;5.888;2022-09-03T02:59:25;3.30;;;1.73;;
32319;SDS011;19080;51.750;5.888;2022-09-03T03:01:54;3.53;;;1.60;;
32319;SDS011;19080;51.750;5.888;2022-09-03T03:04:20;2.78;;;1.65;;
32319;SDS011;19080;51.750;5.888;2022-09-03T03:06:47;2.80;;;1.38;;
32319;SDS011;19080;51.750;5.888;2022-09-03T03:09:16;4.28;;;1.35;;
32319;SDS011;19080;51.750;5.888;2022-09-03T03:11:42;3.05;;;1.40;;
32319;SDS011;19080;51.750;5.888;2022-09-03T03:14:09;2.33;;;1.10;;
32319;SDS011;19080;51.750;5.888;2022-09-03T03:16:36;2.35;;;1.20;;
32319;SDS011;19080;51.750;5.888;2022-09-03T03:19:02;3.47;;;1.60;;
32319;SDS011;19080;51.750;5.888;2022-09-03T03:21:29;3.20;;;1.33;;
32319;SDS011;19080;51.750;5.888;2022-09-03T03:23:56;2.97;;;1.45;;
32319;SDS011;19080;51.750;5.888;2022-09-03T03:26:22;3.35;;;1.50;;
32319;SDS011;19080;51.750;5.888;2022-09-03T03:28:50;3.60;;;1.20;;
32319;SDS011;19080;51.750;5.888;2022-09-03T03:31:22;1.85;;;1.20;;
32319;SDS011;19080;51.750;5.888;2022-09-03T03:33:49;3.95;;;1.45;;
32319;SDS011;19080;51.750;5.888;2022-09-03T03:36:16;4.05;;;1.60;;
32319;SDS011;19080;51.750;5.888;2022-09-03T03:38:43;2.17;;;1.50;;
32319;SDS011;19080;51.750;5.888;2022-09-03T03:41:13;3.28;;;1.40;;
32319;SDS011;19080;51.750;5.888;2022-09-03T03:43:41;2.17;;;1.20;;
32319;SDS011;19080;51.750;5.888;2022-09-03T03:46:08;2.10;;;1.25;;
32319;SDS011;19080;51.750;5.888;2022-09-03T03:48:36;2.45;;;1.55;;
32319;SDS011;19080;51.750;5.888;2022-09-03T03:51:04;4.53;;;1.55;;
32319;SDS011;19080;51.750;5.888;2022-09-03T03:53:35;3.30;;;1.35;;
32319;SDS011;19080;51.750;5.888;2022-09-03T03:56:04;3.80;;;1.35;;
32319;SDS011;19080;51.750;5.888;2022-09-03T03:58:31;2.58;;;1.40;;
32319;SDS011;19080;51.750;5.888;2022-09-03T04:01:04;4.03;;;1.60;;
32319;SDS011;19080;51.750;5.888;2022-09-03T04:03:31;2.90;;;1.48;;
32319;SDS011;19080;51.750;5.888;2022-09-03T04:05:58;3.22;;;1.15;;
32319;SDS011;19080;51.750;5.888;2022-09-03T04:08:26;2.67;;;1.27;;
32319;SDS011;19080;51.750;5.888;2022-09-03T04:10:53;2.22;;;1.40;;
32319;SDS011;19080;51.750;5.888;2022-09-03T04:13:20;2.15;;;1.55;;
32319;SDS011;19080;51.750;5.888;2022-09-03T04:15:47;2.90;;;1.50;;
32319;SDS011;19080;51.750;5.888;2022-09-03T04:18:13;5.18;;;1.30;;
32319;SDS011;19080;51.750;5.888;2022-09-03T04:20:40;3.15;;;1.60;;
32319;SDS011;19080;51.750;5.888;2022-09-03T04:23:06;5.40;;;1.33;;
32319;SDS011;19080;51.750;5.888;2022-09-03T04:25:33;2.30;;;1.50;;
32319;SDS011;19080;51.750;5.888;2022-09-03T04:28:00;2.08;;;1.42;;
32319;SDS011;19080;51.750;5.888;2022-09-03T04:30:29;4.13;;;1.27;;
32319;SDS011;19080;51.750;5.888;2022-09-03T04:32:55;2.38;;;1.10;;
32319;SDS011;19080;51.750;5.888;2022-09-03T04:35:23;3.08;;;1.30;;
32319;SDS011;19080;51.750;5.888;2022-09-03T04:37:50;3.53;;;1.30;;
32319;SDS011;19080;51.750;5.888;2022-09-03T04:40:18;2.05;;;1.30;;
32319;SDS011;19080;51.750;5.888;2022-09-03T04:42:44;2.67;;;1.45;;
32319;SDS011;19080;51.750;5.888;2022-09-03T04:45:11;3.42;;;1.40;;
32319;SDS011;19080;51.750;5.888;2022-09-03T04:47:41;1.85;;;1.58;;
32319;SDS011;19080;51.750;5.888;2022-09-03T04:50:07;4.80;;;1.30;;
32319;SDS011;19080;51.750;5.888;2022-09-03T04:52:35;2.30;;;1.20;;
32319;SDS011;19080;51.750;5.888;2022-09-03T04:55:03;4.25;;;1.60;;
32319;SDS011;19080;51.750;5.888;2022-09-03T04:57:30;1.70;;;1.38;;
32319;SDS011;19080;51.750;5.888;2022-09-03T05:00:00;7.47;;;1.33;;
32319;SDS011;19080;51.750;5.888;2022-09-03T05:02:27;2.80;;;1.23;;
32319;SDS011;19080;51.750;5.888;2022-09-03T05:04:54;2.35;;;1.35;;
32319;SDS011;19080;51.750;5.888;2022-09-03T05:07:20;2.38;;;1.25;;
32319;SDS011;19080;51.750;5.888;2022-09-03T05:09:47;4.50;;;1.23;;
32319;SDS011;19080;51.750;5.888;2022-09-03T05:12:14;2.13;;;1.15;;
32319;SDS011;19080;51.750;5.888;2022-09-03T05:14:42;2.10;;;1.40;;
32319;SDS011;19080;51.750;5.888;2022-09-03T05:17:08;2.13;;;1.20;;
32319;SDS011;19080;51.750;5.888;2022-09-03T05:19:35;1.80;;;1.20;;
32319;SDS011;19080;51.750;5.888;2022-09-03T05:22:02;3.72;;;1.23;;
32319;SDS011;19080;51.750;5.888;2022-09-03T05:24:28;2.60;;;1.10;;
32319;SDS011;19080;51.750;5.888;2022-09-03T05:26:55;4.93;;;1.42;;
32319;SDS011;19080;51.750;5.888;2022-09-03T05:29:21;3.38;;;1.33;;
32319;SDS011;19080;51.750;5.888;2022-09-03T05:31:48;3.35;;;1.52;;
32319;SDS011;19080;51.750;5.888;2022-09-03T05:34:15;2.17;;;1.35;;
32319;SDS011;19080;51.750;5.888;2022-09-03T05:36:43;3.33;;;1.33;;
32319;SDS011;19080;51.750;5.888;2022-09-03T05:39:10;2.03;;;1.02;;
32319;SDS011;19080;51.750;5.888;2022-09-03T05:41:37;5.43;;;1.35;;
32319;SDS011;19080;51.750;5.888;2022-09-03T05:44:03;1.38;;;1.20;;
32319;SDS011;19080;51.750;5.888;2022-09-03T05:46:31;4.32;;;1.30;;
32319;SDS011;19080;51.750;5.888;2022-09-03T05:49:03;2.05;;;1.10;;
32319;SDS011;19080;51.750;5.888;2022-09-03T05:51:30;4.68;;;1.30;;
32319;SDS011;19080;51.750;5.888;2022-09-03T05:53:57;2.00;;;1.00;;
32319;SDS011;19080;51.750;5.888;2022-09-03T05:56:24;3.58;;;1.50;;
32319;SDS011;19080;51.750;5.888;2022-09-03T05:58:52;1.15;;;1.00;;
32319;SDS011;19080;51.750;5.888;2022-09-03T06:01:20;2.00;;;1.30;;
32319;SDS011;19080;51.750;5.888;2022-09-03T06:03:47;1.50;;;1.15;;
32319;SDS011;19080;51.750;5.888;2022-09-03T06:06:19;1.40;;;1.00;;
32319;SDS011;19080;51.750;5.888;2022-09-03T06:08:49;3.20;;;1.00;;
32319;SDS011;19080;51.750;5.888;2022-09-03T06:11:16;3.08;;;1.38;;
32319;SDS011;19080;51.750;5.888;2022-09-03T06:13:43;3.40;;;1.40;;
32319;SDS011;19080;51.750;5.888;2022-09-03T06:16:09;4.40;;;1.27;;
32319;SDS011;19080;51.750;5.888;2022-09-03T06:18:36;2.60;;;1.45;;
32319;SDS011;19080;51.750;5.888;2022-09-03T06:21:03;2.40;;;1.30;;
32319;SDS011;19080;51.750;5.888;2022-09-03T06:23:30;6.78;;;1.80;;
32319;SDS011;19080;51.750;5.888;2022-09-03T06:28:33;4.43;;;1.40;;
32319;SDS011;19080;51.750;5.888;2022-09-03T06:31:01;8.48;;;1.73;;
32319;SDS011;19080;51.750;5.888;2022-09-03T06:33:28;8.23;;;1.25;;
32319;SDS011;19080;51.750;5.888;2022-09-03T06:35:59;2.67;;;1.67;;
32319;SDS011;19080;51.750;5.888;2022-09-03T06:38:27;3.25;;;1.50;;
32319;SDS011;19080;51.750;5.888;2022-09-03T06:40:55;2.33;;;1.30;;
32319;SDS011;19080;51.750;5.888;2022-09-03T06:43:22;3.63;;;1.20;;
32319;SDS011;19080;51.750;5.888;2022-09-03T06:45:52;9.25;;;1.55;;
32319;SDS011;19080;51.750;5.888;2022-09-03T06:48:19;2.35;;;1.15;;
32319;SDS011;19080;51.750;5.888;2022-09-03T06:53:22;3.92;;;1.52;;
32319;SDS011;19080;51.750;5.888;2022-09-03T06:55:52;7.47;;;1.40;;
32319;SDS011;19080;51.750;5.888;2022-09-03T06:58:18;6.03;;;1.40;;
32319;SDS011;19080;51.750;5.888;2022-09-03T07:00:46;3.80;;;1.40;;
32319;SDS011;19080;51.750;5.888;2022-09-03T07:03:13;5.15;;;1.42;;
32319;SDS011;19080;51.750;5.888;2022-09-03T07:05:39;3.15;;;1.10;;
32319;SDS011;19080;51.750;5.888;2022-09-03T07:08:05;5.22;;;1.23;;
32319;SDS011;19080;51.750;5.888;2022-09-03T07:10:35;6.85;;;1.38;;
32319;SDS011;19080;51.750;5.888;2022-09-03T07:13:02;6.30;;;1.23;;
32319;SDS011;19080;51.750;5.888;2022-09-03T07:15:29;3.47;;;1.40;;
32319;SDS011;19080;51.750;5.888;2022-09-03T07:17:56;5.43;;;1.20;;
32319;SDS011;19080;51.750;5.888;2022-09-03T07:20:23;2.85;;;1.20;;
32319;SDS011;19080;51.750;5.888;2022-09-03T07:22:49;4.55;;;1.25;;
32319;SDS011;19080;51.750;5.888;2022-09-03T07:25:16;2.10;;;1.20;;
32319;SDS011;19080;51.750;5.888;2022-09-03T07:27:42;4.47;;;1.35;;
32319;SDS011;19080;51.750;5.888;2022-09-03T07:30:09;2.92;;;1.20;;
32319;SDS011;19080;51.750;5.888;2022-09-03T07:32:36;5.28;;;1.55;;
32319;SDS011;19080;51.750;5.888;2022-09-03T07:35:06;5.93;;;1.27;;
32319;SDS011;19080;51.750;5.888;2022-09-03T07:37:33;2.30;;;1.20;;
32319;SDS011;19080;51.750;5.888;2022-09-03T07:40:00;1.85;;;1.23;;
32319;SDS011;19080;51.750;5.888;2022-09-03T07:42:27;4.45;;;1.67;;
32319;SDS011;19080;51.750;5.888;2022-09-03T07:44:56;2.17;;;1.10;;
32319;SDS011;19080;51.750;5.888;2022-09-03T07:47:23;2.85;;;1.25;;
32319;SDS011;19080;51.750;5.888;2022-09-03T07:49:52;7.90;;;1.45;;
32319;SDS011;19080;51.750;5.888;2022-09-03T07:52:18;3.15;;;1.10;;
32319;SDS011;19080;51.750;5.888;2022-09-03T07:54:45;1.83;;;1.23;;
32319;SDS011;19080;51.750;5.888;2022-09-03T07:57:11;5.38;;;1.20;;
32319;SDS011;19080;51.750;5.888;2022-09-03T07:59:38;4.05;;;1.17;;
32319;SDS011;19080;51.750;5.888;2022-09-03T08:02:04;3.47;;;1.13;;
32319;SDS011;19080;51.750;5.888;2022-09-03T08:04:31;4.07;;;1.27;;
32319;SDS011;19080;51.750;5.888;2022-09-03T08:06:59;4.18;;;1.23;;
32319;SDS011;19080;51.750;5.888;2022-09-03T08:09:25;2.35;;;1.27;;
32319;SDS011;19080;51.750;5.888;2022-09-03T08:11:51;2.88;;;1.13;;
32319;SDS011;19080;51.750;5.888;2022-09-03T08:14:18;3.58;;;1.30;;
32319;SDS011;19080;51.750;5.888;2022-09-03T08:16:45;3.90;;;1.25;;
32319;SDS011;19080;51.750;5.888;2022-09-03T08:19:14;4.22;;;1.10;;
32319;SDS011;19080;51.750;5.888;2022-09-03T08:21:44;2.85;;;1.73;;
32319;SDS011;19080;51.750;5.888;2022-09-03T08:24:11;2.25;;;1.00;;
32319;SDS011;19080;51.750;5.888;2022-09-03T08:26:39;3.70;;;1.60;;
32319;SDS011;19080;51.750;5.888;2022-09-03T08:29:07;5.28;;;1.35;;
32319;SDS011;19080;51.750;5.888;2022-09-03T08:31:34;3.28;;;1.27;;
32319;SDS011;19080;51.750;5.888;2022-09-03T08:34:02;5.72;;;1.20;;
32319;SDS011;19080;51.750;5.888;2022-09-03T08:36:30;2.05;;;1.55;;
32319;SDS011;19080;51.750;5.888;2022-09-03T08:38:57;7.78;;;1.70;;
32319;SDS011;19080;51.750;5.888;2022-09-03T08:46:39;5.13;;;1.25;;
32319;SDS011;19080;51.750;5.888;2022-09-03T08:49:06;3.33;;;1.33;;
32319;SDS011;19080;51.750;5.888;2022-09-03T08:51:34;3.70;;;1.33;;
32319;SDS011;19080;51.750;5.888;2022-09-03T08:54:03;5.30;;;1.60;;
32319;SDS011;19080;51.750;5.888;2022-09-03T08:56:30;10.15;;;1.65;;
32319;SDS011;19080;51.750;5.888;2022-09-03T08:58:56;2.90;;;1.30;;
32319;SDS011;19080;51.750;5.888;2022-09-03T09:04:03;2.45;;;1.40;;
32319;SDS011;19080;51.750;5.888;2022-09-03T09:06:54;4.10;;;1.40;;
32319;SDS011;19080;51.750;5.888;2022-09-03T09:09:27;6.43;;;1.25;;
32319;SDS011;19080;51.750;5.888;2022-09-03T09:17:36;8.05;;;1.60;;
32319;SDS011;19080;51.750;5.888;2022-09-03T09:22:39;6.10;;;1.67;;
32319;SDS011;19080;51.750;5.888;2022-09-03T09:25:11;4.45;;;1.67;;
32319;SDS011;19080;51.750;5.888;2022-09-03T09:30:25;3.22;;;1.38;;
32319;SDS011;19080;51.750;5.888;2022-09-03T09:32:51;3.28;;;1.30;;
32319;SDS011;19080;51.750;5.888;2022-09-03T09:35:18;5.25;;;1.70;;
32319;SDS011;19080;51.750;5.888;2022-09-03T09:37:55;4.47;;;1.27;;
32319;SDS011;19080;51.750;5.888;2022-09-03T09:40:23;3.70;;;1.23;;
32319;SDS011;19080;51.750;5.888;2022-09-03T09:42:50;4.30;;;1.50;;
32319;SDS011;19080;51.750;5.888;2022-09-03T09:45:23;4.65;;;1.35;;
32319;SDS011;19080;51.750;5.888;2022-09-03T09:47:52;4.53;;;1.40;;
32319;SDS011;19080;51.750;5.888;2022-09-03T09:50:20;2.58;;;1.27;;
32319;SDS011;19080;51.750;5.888;2022-09-03T09:53:06;8.13;;;1.77;;
32319;SDS011;19080;51.750;5.888;2022-09-03T09:58:15;4.13;;;1.30;;
32319;SDS011;19080;51.750;5.888;2022-09-03T10:03:33;4.28;;;1.70;;
32319;SDS011;19080;51.750;5.888;2022-09-03T10:06:04;8.13;;;1.52;;
32319;SDS011;19080;51.750;5.888;2022-09-03T10:08:51;8.10;;;1.67;;
32319;SDS011;19080;51.750;5.888;2022-09-03T10:11:19;6.32;;;1.70;;
32319;SDS011;19080;51.750;5.888;2022-09-03T10:13:49;6.93;;;1.60;;
32319;SDS011;19080;51.750;5.888;2022-09-03T10:16:29;5.03;;;1.80;;
32319;SDS011;19080;51.750;5.888;2022-09-03T10:19:03;5.28;;;1.83;;
32319;SDS011;19080;51.750;5.888;2022-09-03T10:26:41;6.63;;;1.67;;
32319;SDS011;19080;51.750;5.888;2022-09-03T10:29:12;5.00;;;1.40;;
32319;SDS011;19080;51.750;5.888;2022-09-03T10:34:26;5.28;;;1.70;;
32319;SDS011;19080;51.750;5.888;2022-09-03T10:39:34;1.63;;;1.25;;
32319;SDS011;19080;51.750;5.888;2022-09-03T10:44:47;5.03;;;1.90;;
32319;SDS011;19080;51.750;5.888;2022-09-03T10:47:27;4.63;;;1.60;;
32319;SDS011;19080;51.750;5.888;2022-09-03T10:50:16;6.93;;;1.40;;
32319;SDS011;19080;51.750;5.888;2022-09-03T11:00:34;5.30;;;1.60;;
32319;SDS011;19080;51.750;5.888;2022-09-03T11:08:41;5.45;;;1.50;;
32319;SDS011;19080;51.750;5.888;2022-09-03T11:16:21;4.25;;;1.50;;
32319;SDS011;19080;51.750;5.888;2022-09-03T11:19:03;3.28;;;1.58;;
32319;SDS011;19080;51.750;5.888;2022-09-03T11:21:30;4.47;;;1.58;;
32319;SDS011;19080;51.750;5.888;2022-09-03T11:24:05;7.32;;;1.50;;
32319;SDS011;19080;51.750;5.888;2022-09-03T11:26:33;2.45;;;1.45;;
32319;SDS011;19080;51.750;5.888;2022-09-03T11:29:03;3.10;;;1.35;;
32319;SDS011;19080;51.750;5.888;2022-09-03T11:31:44;3.30;;;1.33;;
32319;SDS011;19080;51.750;5.888;2022-09-03T11:34:15;3.65;;;1.48;;
32319;SDS011;19080;51.750;5.888;2022-09-03T11:39:38;2.58;;;1.30;;
32319;SDS011;19080;51.750;5.888;2022-09-03T11:42:09;3.75;;;1.20;;
32319;SDS011;19080;51.750;5.888;2022-09-03T11:44:42;5.80;;;1.60;;
32319;SDS011;19080;51.750;5.888;2022-09-03T11:47:23;6.20;;;1.10;;
32319;SDS011;19080;51.750;5.888;2022-09-03T11:49:51;2.85;;;1.05;;
32319;SDS011;19080;51.750;5.888;2022-09-03T11:52:28;5.35;;;1.33;;
32319;SDS011;19080;51.750;5.888;2022-09-03T11:54:55;4.97;;;1.15;;
32319;SDS011;19080;51.750;5.888;2022-09-03T11:57:28;6.20;;;1.55;;
32319;SDS011;19080;51.750;5.888;2022-09-03T12:00:12;4.97;;;1.40;;
32319;SDS011;19080;51.750;5.888;2022-09-03T12:02:54;4.13;;;1.30;;
32319;SDS011;19080;51.750;5.888;2022-09-03T12:15:43;6.72;;;1.17;;
32319;SDS011;19080;51.750;5.888;2022-09-03T12:20:47;5.50;;;1.70;;
32319;SDS011;19080;51.750;5.888;2022-09-03T12:25:52;3.90;;;1.42;;
32319;SDS011;19080;51.750;5.888;2022-09-03T12:28:20;3.38;;;1.38;;
32319;SDS011;19080;51.750;5.888;2022-09-03T12:30:48;5.25;;;1.50;;
32319;SDS011;19080;51.750;5.888;2022-09-03T12:33:19;2.28;;;1.38;;
32319;SDS011;19080;51.750;5.888;2022-09-03T12:35:59;3.78;;;1.40;;
32319;SDS011;19080;51.750;5.888;2022-09-03T12:38:27;2.60;;;1.33;;
32319;SDS011;19080;51.750;5.888;2022-09-03T12:40:54;2.47;;;1.10;;
32319;SDS011;19080;51.750;5.888;2022-09-03T12:43:47;2.25;;;1.13;;
32319;SDS011;19080;51.750;5.888;2022-09-03T12:46:15;4.60;;;1.48;;
32319;SDS011;19080;51.750;5.888;2022-09-03T12:48:56;4.13;;;1.40;;
32319;SDS011;19080;51.750;5.888;2022-09-03T12:51:44;2.63;;;1.25;;
32319;SDS011;19080;51.750;5.888;2022-09-03T12:54:18;9.02;;;1.52;;
32319;SDS011;19080;51.750;5.888;2022-09-03T12:56:45;6.70;;;1.10;;
32319;SDS011;19080;51.750;5.888;2022-09-03T12:59:16;1.85;;;1.10;;
32319;SDS011;19080;51.750;5.888;2022-09-03T13:01:46;2.45;;;1.00;;
32319;SDS011;19080;51.750;5.888;2022-09-03T13:04:18;2.97;;;1.33;;
32319;SDS011;19080;51.750;5.888;2022-09-03T13:09:15;2.97;;;1.10;;
32319;SDS011;19080;51.750;5.888;2022-09-03T13:11:44;4.95;;;1.10;;
32319;SDS011;19080;51.750;5.888;2022-09-03T13:14:11;2.22;;;1.13;;
32319;SDS011;19080;51.750;5.888;2022-09-03T13:19:16;2.03;;;1.30;;
32319;SDS011;19080;51.750;5.888;2022-09-03T13:21:54;6.13;;;1.42;;
32319;SDS011;19080;51.750;5.888;2022-09-03T13:32:12;3.83;;;1.20;;
32319;SDS011;19080;51.750;5.888;2022-09-03T13:34:46;7.40;;;1.38;;
32319;SDS011;19080;51.750;5.888;2022-09-03T13:39:46;4.40;;;1.23;;
32319;SDS011;19080;51.750;5.888;2022-09-03T13:42:17;1.65;;;1.10;;
32319;SDS011;19080;51.750;5.888;2022-09-03T13:44:54;2.13;;;1.20;;
32319;SDS011;19080;51.750;5.888;2022-09-03T13:47:26;2.45;;;1.13;;
32319;SDS011;19080;51.750;5.888;2022-09-03T13:50:06;3.85;;;1.40;;
32319;SDS011;19080;51.750;5.888;2022-09-03T13:52:52;3.15;;;1.30;;
32319;SDS011;19080;51.750;5.888;2022-09-03T13:55:33;1.83;;;1.08;;
32319;SDS011;19080;51.750;5.888;2022-09-03T14:00:39;4.28;;;1.30;;
32319;SDS011;19080;51.750;5.888;2022-09-03T14:03:11;4.25;;;1.08;;
32319;SDS011;19080;51.750;5.888;2022-09-03T14:05:49;2.58;;;1.33;;
32319;SDS011;19080;51.750;5.888;2022-09-03T14:11:04;2.38;;;1.17;;
32319;SDS011;19080;51.750;5.888;2022-09-03T14:13:41;2.42;;;1.08;;
32319;SDS011;19080;51.750;5.888;2022-09-03T14:16:19;1.95;;;1.05;;
32319;SDS011;19080;51.750;5.888;2022-09-03T14:21:44;2.42;;;1.20;;
32319;SDS011;19080;51.750;5.888;2022-09-03T14:24:19;6.90;;;1.10;;
32319;SDS011;19080;51.750;5.888;2022-09-03T14:26:52;1.75;;;1.25;;
32319;SDS011;19080;51.750;5.888;2022-09-03T14:29:22;3.88;;;1.30;;
32319;SDS011;19080;51.750;5.888;2022-09-03T14:39:53;3.50;;;1.02;;
32319;SDS011;19080;51.750;5.888;2022-09-03T14:42:23;4.72;;;1.10;;
32319;SDS011;19080;51.750;5.888;2022-09-03T14:45:09;2.05;;;0.80;;
32319;SDS011;19080;51.750;5.888;2022-09-03T14:50:18;1.45;;;1.20;;
32319;SDS011;19080;51.750;5.888;2022-09-03T14:52:58;2.45;;;1.15;;
32319;SDS011;19080;51.750;5.888;2022-09-03T14:55:28;2.65;;;1.08;;
32319;SDS011;19080;51.750;5.888;2022-09-03T15:00:28;3.17;;;1.10;;
32319;SDS011;19080;51.750;5.888;2022-09-03T15:08:18;2.63;;;1.30;;
32319;SDS011;19080;51.750;5.888;2022-09-03T15:10:49;3.55;;;1.25;;
32319;SDS011;19080;51.750;5.888;2022-09-03T15:13:23;4.18;;;1.20;;
32319;SDS011;19080;51.750;5.888;2022-09-03T15:16:04;2.88;;;1.40;;
32319;SDS011;19080;51.750;5.888;2022-09-03T15:24:18;2.33;;;1.10;;
32319;SDS011;19080;51.750;5.888;2022-09-03T15:40:21;6.28;;;1.40;;
32319;SDS011;19080;51.750;5.888;2022-09-03T15:42:53;6.03;;;1.55;;
32319;SDS011;19080;51.750;5.888;2022-09-03T15:45:37;4.20;;;1.42;;
32319;SDS011;19080;51.750;5.888;2022-09-03T15:48:09;2.97;;;1.30;;
32319;SDS011;19080;51.750;5.888;2022-09-03T15:53:25;2.40;;;1.17;;
32319;SDS011;19080;51.750;5.888;2022-09-03T16:04:21;6.68;;;1.42;;
32319;SDS011;19080;51.750;5.888;2022-09-03T16:06:58;5.57;;;1.40;;
32319;SDS011;19080;51.750;5.888;2022-09-03T16:10:31;2.80;;;1.55;;
32319;SDS011;19080;51.750;5.888;2022-09-03T16:15:20;2.28;;;1.55;;
32319;SDS011;19080;51.750;5.888;2022-09-03T16:17:56;4.68;;;1.45;;
32319;SDS011;19080;51.750;5.888;2022-09-03T16:22:59;5.43;;;1.60;;
32319;SDS011;19080;51.750;5.888;2022-09-03T16:25:29;6.65;;;1.65;;
32319;SDS011;19080;51.750;5.888;2022-09-03T16:27:59;3.25;;;2.78;;
32319;SDS011;19080;51.750;5.888;2022-09-03T16:43:43;6.80;;;4.63;;
32319;SDS011;19080;51.750;5.888;2022-09-03T16:46:24;4.28;;;3.53;;
32319;SDS011;19080;51.750;5.888;2022-09-03T16:51:39;4.30;;;2.90;;
32319;SDS011;19080;51.750;5.888;2022-09-03T16:56:47;4.30;;;1.80;;
32319;SDS011;19080;51.750;5.888;2022-09-03T17:01:49;3.17;;;1.90;;
32319;SDS011;19080;51.750;5.888;2022-09-03T17:07:05;3.83;;;1.75;;
32319;SDS011;19080;51.750;5.888;2022-09-03T17:09:40;3.17;;;1.52;;
32319;SDS011;19080;51.750;5.888;2022-09-03T17:12:14;3.72;;;1.30;;
32319;SDS011;19080;51.750;5.888;2022-09-03T17:18:16;1.65;;;1.55;;
32319;SDS011;19080;51.750;5.888;2022-09-03T17:20:13;3.80;;;1.70;;
32319;SDS011;19080;51.750;5.888;2022-09-03T17:22:49;1.50;;;1.40;;
32319;SDS011;19080;51.750;5.888;2022-09-03T17:30:15;4.00;;;2.15;;
32319;SDS011;19080;51.750;5.888;2022-09-03T17:43:39;2.00;;;1.58;;
32319;SDS011;19080;51.750;5.888;2022-09-03T17:46:26;2.10;;;1.60;;
32319;SDS011;19080;51.750;5.888;2022-09-03T17:48:54;3.25;;;2.03;;
32319;SDS011;19080;51.750;5.888;2022-09-03T17:54:04;2.88;;;1.42;;
32319;SDS011;19080;51.750;5.888;2022-09-03T17:59:22;3.15;;;1.90;;
32319;SDS011;19080;51.750;5.888;2022-09-03T18:01:57;2.03;;;1.58;;
32319;SDS011;19080;51.750;5.888;2022-09-03T18:04:30;3.17;;;1.90;;
32319;SDS011;19080;51.750;5.888;2022-09-03T18:07:05;4.32;;;2.70;;
32319;SDS011;19080;51.750;5.888;2022-09-03T18:09:39;2.92;;;2.17;;
32319;SDS011;19080;51.750;5.888;2022-09-03T18:20:04;1.70;;;1.60;;
32319;SDS011;19080;51.750;5.888;2022-09-03T18:22:58;2.83;;;1.77;;
32319;SDS011;19080;51.750;5.888;2022-09-03T18:25:46;1.75;;;1.65;;
32319;SDS011;19080;51.750;5.888;2022-09-03T18:28:39;3.45;;;1.50;;
32319;SDS011;19080;51.750;5.888;2022-09-03T18:31:26;1.40;;;1.30;;
32319;SDS011;19080;51.750;5.888;2022-09-03T18:34:12;3.35;;;1.80;;
32319;SDS011;19080;51.750;5.888;2022-09-03T18:36:57;3.92;;;1.80;;
32319;SDS011;19080;51.750;5.888;2022-09-03T18:39:43;5.80;;;1.70;;
32319;SDS011;19080;51.750;5.888;2022-09-03T18:42:48;6.30;;;1.88;;
32319;SDS011;19080;51.750;5.888;2022-09-03T18:45:42;4.88;;;1.90;;
32319;SDS011;19080;51.750;5.888;2022-09-03T18:48:58;3.40;;;1.85;;
32319;SDS011;19080;51.750;5.888;2022-09-03T18:52:01;2.72;;;1.80;;
32319;SDS011;19080;51.750;5.888;2022-09-03T18:54:53;6.20;;;2.00;;
32319;SDS011;19080;51.750;5.888;2022-09-03T19:00:29;3.40;;;2.28;;
32319;SDS011;19080;51.750;5.888;2022-09-03T19:06:41;5.18;;;2.00;;
32319;SDS011;19080;51.750;5.888;2022-09-03T19:12:41;1.95;;;1.42;;
32319;SDS011;19080;51.750;5.888;2022-09-03T19:15:52;3.35;;;2.10;;
32319;SDS011;19080;51.750;5.888;2022-09-03T19:21:47;2.45;;;1.77;;
32319;SDS011;19080;51.750;5.888;2022-09-03T19:24:33;3.38;;;2.10;;
32319;SDS011;19080;51.750;5.888;2022-09-03T19:33:22;9.68;;;3.05;;
32319;SDS011;19080;51.750;5.888;2022-09-03T19:36:24;4.75;;;1.70;;
32319;SDS011;19080;51.750;5.888;2022-09-03T19:42:28;5.40;;;2.35;;
32319;SDS011;19080;51.750;5.888;2022-09-03T19:45:21;9.90;;;2.40;;
32319;SDS011;19080;51.750;5.888;2022-09-03T19:51:28;10.68;;;2.50;;
32319;SDS011;19080;51.750;5.888;2022-09-03T19:54:05;9.63;;;2.70;;
32319;SDS011;19080;51.750;5.888;2022-09-03T19:56:53;13.55;;;3.35;;
32319;SDS011;19080;51.750;5.888;2022-09-03T19:59:40;9.95;;;2.55;;